createdAt,value
2023-02-18T00:00:18.248Z,10.87
2023-02-18T00:02:21.912Z,10.87
2023-02-18T00:04:25.770Z,10.86
2023-02-18T00:06:31.683Z,10.86
2023-02-18T00:08:36.830Z,10.87
2023-02-18T00:10:42.936Z,10.86
2023-02-18T00:12:46.941Z,10.82
2023-02-18T00:14:51.890Z,10.82
2023-02-18T00:16:55.196Z,10.80
2023-02-18T00:18:59.765Z,10.80
2023-02-18T00:21:05.835Z,10.80
2023-02-18T00:23:09.343Z,10.78
2023-02-18T00:25:14.480Z,10.77
2023-02-18T00:27:18.205Z,10.75
2023-02-18T00:29:22.595Z,10.74
2023-02-18T00:31:29.672Z,10.73
2023-02-18T00:33:35.742Z,10.74
2023-02-18T00:35:39.312Z,10.74
2023-02-18T00:37:42.763Z,10.73
2023-02-18T00:39:46.341Z,10.72
2023-02-18T00:41:51.559Z,10.69
2023-02-18T00:43:55.782Z,10.67
2023-02-18T00:45:59.540Z,10.69
2023-02-18T00:48:03.612Z,10.66
2023-02-18T00:50:08.847Z,10.64
2023-02-18T00:52:12.856Z,10.62
2023-02-18T00:54:18.986Z,10.62
2023-02-18T00:56:23.993Z,10.62
2023-02-18T00:58:29.416Z,10.62
2023-02-18T01:00:33.317Z,10.62
2023-02-18T01:02:37.084Z,10.64
2023-02-18T01:04:41.353Z,10.63
2023-02-18T01:06:45.006Z,10.62
2023-02-18T01:08:48.812Z,10.61
2023-02-18T01:10:56.349Z,10.62
2023-02-18T01:13:00.041Z,10.63
2023-02-18T01:15:05.501Z,10.64
2023-02-18T01:17:09.389Z,10.61
2023-02-18T01:19:13.019Z,10.60
2023-02-18T01:21:17.434Z,10.56
2023-02-18T01:23:21.772Z,10.53
2023-02-18T01:25:25.686Z,10.52
2023-02-18T01:27:29.534Z,10.50
2023-02-18T01:29:33.075Z,10.49
2023-02-18T01:31:39.627Z,10.50
2023-02-18T01:33:44.487Z,10.50
2023-02-18T01:35:48.289Z,10.49
2023-02-18T01:37:53.370Z,10.50
2023-02-18T01:39:56.908Z,10.49
2023-02-18T01:42:00.694Z,10.50
2023-02-18T01:44:15.522Z,10.50
2023-02-18T01:46:23.265Z,10.53
2023-02-18T01:48:33.656Z,10.54
2023-02-18T01:50:41.867Z,10.54
2023-02-18T01:52:45.429Z,10.56
2023-02-18T01:54:53.398Z,10.57
2023-02-18T01:57:01.855Z,10.57
2023-02-18T01:59:11.311Z,10.58
2023-02-18T02:01:15.391Z,10.60
2023-02-18T02:03:18.882Z,10.61
2023-02-18T02:05:23.949Z,10.61
2023-02-18T02:07:29.852Z,10.61
2023-02-18T02:09:35.953Z,10.61
2023-02-18T02:12:03.846Z,10.61
2023-02-18T02:14:27.455Z,10.63
2023-02-18T02:16:38.993Z,10.64
2023-02-18T02:18:55.868Z,10.68
2023-02-18T02:21:29.491Z,10.68
2023-02-18T02:24:04.358Z,10.71
2023-02-18T02:26:31.272Z,10.73
2023-02-18T02:29:08.143Z,10.74
2023-02-18T02:31:55.217Z,10.77
2023-02-18T02:34:46.606Z,10.79
2023-02-18T02:36:56.225Z,10.80
2023-02-18T02:39:08.292Z,10.81
2023-02-18T02:41:20.942Z,10.82
2023-02-18T02:43:35.654Z,10.83
2023-02-18T02:45:49.698Z,10.83
2023-02-18T02:48:02.235Z,10.84
2023-02-18T02:50:14.046Z,10.87
2023-02-18T02:52:23.569Z,10.89
2023-02-18T02:54:30.058Z,10.92
2023-02-18T02:56:33.748Z,10.93
2023-02-18T02:58:38.096Z,10.93
2023-02-18T03:00:51.789Z,10.94
2023-02-18T03:03:21.710Z,10.95
2023-02-18T03:05:39.022Z,10.92
2023-02-18T03:08:06.168Z,10.90
2023-02-18T03:10:23.856Z,10.88
2023-02-18T03:12:37.004Z,10.83
2023-02-18T03:14:52.684Z,10.78
2023-02-18T03:17:04.444Z,10.64
2023-02-18T03:19:13.798Z,10.49
2023-02-18T03:21:26.887Z,10.36
2023-02-18T03:23:36.032Z,10.26
2023-02-18T03:25:41.922Z,10.17
2023-02-18T03:27:50.996Z,10.10
2023-02-18T03:30:00.104Z,10.06
2023-02-18T03:32:08.444Z,10.02
2023-02-18T03:34:17.137Z,9.98
2023-02-18T03:36:23.949Z,9.95
2023-02-18T03:38:33.338Z,9.92
2023-02-18T03:40:36.901Z,9.91
2023-02-18T03:42:40.600Z,9.89
2023-02-18T03:44:44.032Z,9.88
2023-02-18T03:46:48.254Z,9.88
2023-02-18T03:48:51.876Z,9.87
2023-02-18T03:50:57.848Z,9.88
2023-02-18T03:53:02.883Z,9.89
2023-02-18T03:55:09.445Z,9.90
2023-02-18T03:57:13.035Z,9.91
2023-02-18T03:59:16.503Z,9.92
2023-02-18T04:01:20.163Z,9.93
2023-02-18T04:03:23.602Z,9.93
2023-02-18T04:05:27.107Z,9.86
2023-02-18T04:07:30.474Z,9.81
2023-02-18T04:09:35.526Z,9.76
2023-02-18T04:11:39.981Z,9.72
2023-02-18T04:13:43.440Z,9.69
2023-02-18T04:15:47.106Z,9.66
2023-02-18T04:17:50.588Z,9.63
2023-02-18T04:19:54.051Z,9.60
2023-02-18T04:21:57.512Z,9.57
2023-02-18T04:24:01.296Z,9.55
2023-02-18T04:26:06.560Z,9.53
2023-02-18T04:28:13.527Z,9.53
2023-02-18T04:30:18.892Z,9.50
2023-02-18T04:32:22.531Z,9.53
2023-02-18T04:34:25.988Z,9.54
2023-02-18T04:36:29.415Z,9.57
2023-02-18T04:38:32.819Z,9.59
2023-02-18T04:40:37.003Z,9.60
2023-02-18T04:42:42.003Z,9.62
2023-02-18T04:44:47.392Z,9.65
2023-02-18T04:46:51.381Z,9.65
2023-02-18T04:48:55.673Z,9.65
2023-02-18T04:50:59.608Z,9.64
2023-02-18T04:53:03.436Z,9.63
2023-02-18T04:55:08.135Z,9.60
2023-02-18T04:57:11.928Z,9.57
2023-02-18T04:59:17.070Z,9.56
2023-02-18T05:01:20.951Z,9.55
2023-02-18T05:03:24.665Z,9.54
2023-02-18T05:05:28.881Z,9.55
2023-02-18T05:07:32.680Z,9.54
2023-02-18T05:09:36.553Z,9.55
2023-02-18T05:11:40.592Z,9.56
2023-02-18T05:13:44.424Z,9.56
2023-02-18T05:15:49.869Z,9.58
2023-02-18T05:17:53.814Z,9.58
2023-02-18T05:19:57.614Z,9.58
2023-02-18T05:22:01.513Z,9.58
2023-02-18T05:24:05.772Z,9.57
2023-02-18T05:26:09.995Z,9.57
2023-02-18T05:28:13.967Z,9.56
2023-02-18T05:30:20.949Z,9.55
2023-02-18T05:32:26.268Z,9.55
2023-02-18T05:34:29.613Z,9.55
2023-02-18T05:36:33.364Z,9.55
2023-02-18T05:38:37.171Z,9.55
2023-02-18T05:40:40.793Z,9.53
2023-02-18T05:42:44.507Z,9.54
2023-02-18T05:44:47.340Z,9.53
2023-02-18T05:46:50.815Z,9.53
2023-02-18T05:48:55.892Z,9.53
2023-02-18T05:50:59.844Z,9.53
2023-02-18T05:53:03.588Z,9.53
2023-02-18T05:55:08.268Z,9.53
2023-02-18T05:57:14.726Z,9.54
2023-02-18T05:59:18.608Z,9.55
2023-02-18T06:01:22.500Z,9.54
2023-02-18T06:03:26.277Z,9.56
2023-02-18T06:05:31.338Z,9.57
2023-02-18T06:07:35.430Z,9.59
2023-02-18T06:09:39.447Z,9.63
2023-02-18T06:11:43.337Z,9.64
2023-02-18T06:13:47.453Z,9.63
2023-02-18T06:15:52.093Z,9.63
2023-02-18T06:17:55.727Z,9.61
2023-02-18T06:19:59.304Z,9.59
2023-02-18T06:22:04.300Z,9.57
2023-02-18T06:24:07.847Z,9.56
2023-02-18T06:26:11.635Z,9.56
2023-02-18T06:28:15.312Z,9.54
2023-02-18T06:30:19.578Z,9.53
2023-02-18T06:32:23.306Z,9.51
2023-02-18T06:34:28.179Z,9.48
2023-02-18T06:36:32.075Z,9.48
2023-02-18T06:38:37.522Z,9.46
2023-02-18T06:40:40.918Z,9.44
2023-02-18T06:42:44.474Z,9.44
2023-02-18T06:44:47.977Z,9.44
2023-02-18T06:46:51.539Z,9.46
2023-02-18T06:48:55.175Z,9.47
2023-02-18T06:50:59.112Z,9.49
2023-02-18T06:53:02.811Z,9.51
2023-02-18T06:55:09.546Z,9.53
2023-02-18T06:57:13.038Z,9.54
2023-02-18T06:59:16.573Z,9.56
2023-02-18T07:01:20.231Z,9.56
2023-02-18T07:03:23.814Z,9.59
2023-02-18T07:05:27.682Z,9.60
2023-02-18T07:07:31.070Z,9.61
2023-02-18T07:09:34.867Z,9.62
2023-02-18T07:11:39.729Z,9.61
2023-02-18T07:13:43.261Z,9.60
2023-02-18T07:15:46.809Z,9.60
2023-02-18T07:17:50.721Z,9.60
2023-02-18T07:19:55.866Z,9.59
2023-02-18T07:21:59.501Z,9.57
2023-02-18T07:24:03.145Z,9.57
2023-02-18T07:26:09.372Z,9.55
2023-02-18T07:28:14.390Z,9.55
2023-02-18T07:30:18.324Z,9.52
2023-02-18T07:32:22.107Z,9.53
2023-02-18T07:34:25.693Z,9.54
2023-02-18T07:36:29.125Z,9.54
2023-02-18T07:38:32.988Z,9.54
2023-02-18T07:40:36.457Z,9.51
2023-02-18T07:42:39.941Z,9.52
2023-02-18T07:44:46.377Z,9.52
2023-02-18T07:46:49.969Z,9.53
2023-02-18T07:48:53.496Z,9.54
2023-02-18T07:50:57.153Z,9.54
2023-02-18T07:53:00.695Z,9.54
2023-02-18T07:55:04.395Z,9.53
2023-02-18T07:57:08.040Z,9.51
2023-02-18T07:59:11.957Z,9.51
2023-02-18T08:01:17.594Z,9.49
2023-02-18T08:03:23.019Z,9.50
2023-02-18T08:05:26.586Z,9.47
2023-02-18T08:07:29.948Z,9.47
2023-02-18T08:09:33.377Z,9.47
2023-02-18T08:11:38.652Z,9.46
2023-02-18T08:13:42.059Z,9.46
2023-02-18T08:15:45.663Z,9.46
2023-02-18T08:17:50.516Z,9.49
2023-02-18T08:19:54.310Z,9.51
2023-02-18T08:21:57.926Z,9.54
2023-02-18T08:24:01.453Z,9.54
2023-02-18T08:26:05.103Z,9.56
2023-02-18T08:28:18.423Z,9.56
2023-02-18T08:30:22.219Z,9.59
2023-02-18T08:32:29.021Z,9.61
2023-02-18T08:34:34.120Z,9.64
2023-02-18T08:36:38.470Z,9.64
2023-02-18T08:38:42.495Z,9.67
2023-02-18T08:40:47.538Z,9.71
2023-02-18T08:42:50.910Z,9.73
2023-02-18T08:44:54.781Z,9.76
2023-02-18T08:46:58.679Z,9.81
2023-02-18T08:49:02.887Z,9.87
2023-02-18T08:51:15.535Z,9.89
2023-02-18T08:53:19.358Z,9.90
2023-02-18T08:55:22.757Z,9.91
2023-02-18T08:57:26.281Z,9.91
2023-02-18T08:59:29.900Z,9.92
2023-02-18T09:01:33.357Z,9.93
2023-02-18T09:03:37.292Z,9.98
2023-02-18T09:05:41.117Z,10.03
2023-02-18T09:07:46.053Z,10.06
2023-02-18T09:09:49.006Z,10.04
2023-02-18T09:11:52.526Z,10.03
2023-02-18T09:13:56.232Z,10.00
2023-02-18T09:16:01.963Z,9.99
2023-02-18T09:18:06.106Z,9.99
2023-02-18T09:20:10.522Z,10.00
2023-02-18T09:22:14.663Z,10.01
2023-02-18T09:24:19.593Z,10.02
2023-02-18T09:26:23.591Z,10.02
2023-02-18T09:28:27.409Z,10.04
2023-02-18T09:30:31.093Z,10.06
2023-02-18T09:32:35.502Z,10.07
2023-02-18T09:34:39.615Z,10.06
2023-02-18T09:36:43.156Z,10.06
2023-02-18T09:38:46.724Z,10.04
2023-02-18T09:40:55.001Z,10.07
2023-02-18T09:42:59.576Z,10.07
2023-02-18T09:45:05.918Z,10.10
2023-02-18T09:47:15.571Z,10.11
2023-02-18T09:49:23.369Z,10.16
2023-02-18T09:51:27.154Z,10.21
2023-02-18T09:53:31.055Z,10.24
2023-02-18T09:55:39.027Z,10.28
2023-02-18T09:57:47.584Z,10.29
2023-02-18T09:59:57.803Z,10.31
2023-02-18T10:02:03.197Z,10.33
2023-02-18T10:04:14.460Z,10.35
2023-02-18T10:06:23.726Z,10.36
2023-02-18T10:08:29.912Z,10.38
2023-02-18T10:10:40.002Z,10.37
2023-02-18T10:12:45.618Z,10.38
2023-02-18T10:14:52.656Z,10.39
2023-02-18T10:16:56.294Z,10.39
2023-02-18T10:19:03.804Z,10.37
2023-02-18T10:21:10.607Z,10.37
2023-02-18T10:23:16.114Z,10.38
2023-02-18T10:25:23.049Z,10.39
2023-02-18T10:27:29.432Z,10.37
2023-02-18T10:29:34.696Z,10.38
2023-02-18T10:31:42.326Z,10.40
2023-02-18T10:33:53.685Z,10.41
2023-02-18T10:36:08.453Z,10.44
2023-02-18T10:38:19.872Z,10.45
2023-02-18T10:40:29.950Z,10.46
2023-02-18T10:42:41.286Z,10.47
2023-02-18T10:44:59.771Z,10.48
2023-02-18T10:47:13.952Z,10.48
2023-02-18T10:49:40.627Z,10.50
2023-02-18T10:51:51.721Z,10.54
2023-02-18T10:53:55.739Z,10.59
2023-02-18T10:55:59.490Z,10.61
2023-02-18T10:58:03.037Z,10.63
2023-02-18T11:00:20.835Z,10.68
2023-02-18T11:02:27.207Z,10.75
2023-02-18T11:04:38.292Z,10.85
2023-02-18T11:06:42.972Z,10.92
2023-02-18T11:08:48.165Z,11.02
2023-02-18T11:10:52.527Z,11.09
2023-02-18T11:13:01.156Z,11.15
2023-02-18T11:15:19.300Z,11.14
2023-02-18T11:17:31.483Z,11.12
2023-02-18T11:19:37.131Z,11.14
2023-02-18T11:21:40.850Z,11.15
2023-02-18T11:23:49.454Z,11.16
2023-02-18T11:26:04.497Z,11.14
2023-02-18T11:28:33.429Z,11.16
2023-02-18T11:30:41.479Z,11.20
2023-02-18T11:32:45.985Z,11.26
2023-02-18T11:34:51.792Z,11.32
2023-02-18T11:36:55.950Z,11.26
2023-02-18T11:39:04.657Z,11.19
2023-02-18T11:41:11.383Z,11.11
2023-02-18T11:43:18.212Z,11.08
2023-02-18T11:45:31.376Z,11.04
2023-02-18T11:47:41.034Z,11.03
2023-02-18T11:49:46.519Z,11.01
2023-02-18T11:51:51.593Z,11.01
2023-02-18T11:54:01.388Z,11.03
2023-02-18T11:56:07.222Z,11.09
2023-02-18T11:58:13.460Z,11.17
2023-02-18T12:00:23.458Z,11.28
2023-02-18T12:02:34.809Z,11.32
2023-02-18T12:04:45.095Z,11.27
2023-02-18T12:06:55.868Z,11.18
2023-02-18T12:12:13.663Z,10.87
2023-02-18T12:14:55.513Z,10.80
2023-02-18T12:17:37.819Z,10.70
2023-02-18T12:23:40.109Z,10.55
2023-02-18T12:26:27.146Z,10.53
2023-02-18T12:36:11.869Z,10.88
2023-02-18T12:43:00.288Z,10.98
2023-02-18T12:49:58.862Z,11.04
2023-02-18T13:17:16.985Z,11.23
2023-02-18T13:20:37.926Z,11.27
2023-02-18T13:30:39.444Z,11.40
2023-02-18T13:38:28.325Z,11.31
2023-02-18T13:41:18.237Z,11.10
2023-02-18T13:48:24.267Z,10.95
2023-02-18T13:52:45.504Z,10.97
2023-02-18T14:03:09.467Z,11.05
2023-02-18T14:13:05.242Z,11.18
2023-02-18T14:15:51.858Z,11.13
2023-02-18T14:18:25.661Z,11.10
2023-02-18T14:20:51.972Z,11.08
2023-02-18T14:22:57.637Z,11.01
2023-02-18T14:25:06.155Z,10.96
2023-02-18T14:27:19.798Z,10.97
2023-02-18T14:29:31.889Z,10.94
2023-02-18T14:31:44.051Z,10.93
2023-02-18T14:34:10.031Z,10.93
2023-02-18T14:36:29.593Z,10.93
2023-02-18T14:38:44.698Z,10.94
2023-02-18T14:41:16.754Z,10.93
2023-02-18T14:44:14.888Z,10.95
2023-02-18T14:50:18.904Z,10.98
2023-02-18T14:56:49.093Z,11.00
2023-02-18T15:10:13.112Z,11.28
2023-02-18T15:31:13.260Z,11.12
2023-02-18T15:33:57.079Z,11.09
2023-02-18T15:37:08.095Z,11.08
2023-02-18T15:47:05.449Z,10.93
2023-02-18T15:52:52.385Z,10.89
2023-02-18T15:55:22.360Z,10.88
2023-02-18T16:04:16.449Z,10.74
2023-02-18T16:04:20.672Z,10.81
2023-02-18T16:06:25.985Z,10.71
2023-02-18T16:08:38.086Z,10.68
2023-02-18T16:11:08.627Z,10.62
2023-02-18T16:13:49.589Z,10.58
2023-02-18T16:16:49.339Z,10.56
2023-02-18T16:19:00.871Z,10.54
2023-02-18T16:22:08.484Z,10.49
2023-02-18T16:24:29.381Z,10.44
2023-02-18T16:26:43.884Z,10.42
2023-02-18T16:29:14.409Z,10.41
2023-02-18T16:31:29.514Z,10.41
2023-02-18T16:33:34.843Z,10.40
2023-02-18T16:41:27.017Z,10.34
2023-02-18T16:43:33.091Z,10.30
2023-02-18T16:45:41.002Z,10.26
2023-02-18T16:48:12.279Z,10.24
2023-02-18T16:50:21.165Z,10.19
2023-02-18T16:52:28.056Z,10.17
2023-02-18T16:54:32.054Z,10.15
2023-02-18T16:56:37.673Z,10.13
2023-02-18T16:58:41.417Z,10.12
2023-02-18T17:00:46.171Z,10.14
2023-02-18T17:02:52.512Z,10.14
2023-02-18T17:04:57.969Z,10.14
2023-02-18T17:07:01.610Z,10.13
2023-02-18T17:09:15.075Z,10.12
2023-02-18T17:11:22.659Z,10.10
2023-02-18T17:13:30.665Z,10.08
2023-02-18T17:15:36.797Z,10.06
2023-02-18T17:17:40.348Z,10.04
2023-02-18T17:19:44.059Z,10.01
2023-02-18T17:21:48.990Z,9.97
2023-02-18T17:23:52.751Z,9.93
2023-02-18T17:25:56.563Z,9.90
2023-02-18T17:28:00.326Z,9.88
2023-02-18T17:30:06.126Z,9.87
2023-02-18T17:32:10.479Z,9.87
2023-02-18T17:34:17.484Z,9.88
2023-02-18T17:36:21.322Z,9.87
2023-02-18T17:38:25.079Z,9.88
2023-02-18T17:40:30.002Z,9.88
2023-02-18T17:42:35.684Z,9.89
2023-02-18T17:44:40.534Z,9.87
2023-02-18T17:46:46.562Z,9.86
2023-02-18T17:48:50.052Z,9.87
2023-02-18T17:50:54.657Z,9.85
2023-02-18T17:52:58.310Z,9.81
2023-02-18T17:55:01.926Z,9.79
2023-02-18T17:57:05.985Z,9.77
2023-02-18T17:59:10.233Z,9.76
2023-02-18T18:01:14.808Z,9.75
2023-02-18T18:03:21.683Z,9.75
2023-02-18T18:05:27.355Z,9.74
2023-02-18T18:07:30.988Z,9.73
2023-02-18T18:09:34.667Z,9.73
2023-02-18T18:11:39.522Z,9.73
2023-02-18T18:13:43.463Z,9.71
2023-02-18T18:15:47.727Z,9.69
2023-02-18T18:17:52.348Z,9.68
2023-02-18T18:19:57.976Z,9.66
2023-02-18T18:22:01.423Z,9.66
2023-02-18T18:24:05.868Z,9.66
2023-02-18T18:26:10.878Z,9.66
2023-02-18T18:28:14.828Z,9.66
2023-02-18T18:30:19.414Z,9.66
2023-02-18T18:32:23.087Z,9.65
2023-02-18T18:34:27.003Z,9.65
2023-02-18T18:36:31.986Z,9.65
2023-02-18T18:38:35.822Z,9.64
2023-02-18T18:40:40.420Z,9.63
2023-02-18T18:42:44.431Z,9.62
2023-02-18T18:44:48.207Z,9.62
2023-02-18T18:46:51.973Z,9.60
2023-02-18T18:48:55.539Z,9.60
2023-02-18T18:51:01.658Z,9.60
2023-02-18T18:53:07.538Z,9.61
2023-02-18T18:55:23.293Z,9.61
2023-02-18T18:57:27.608Z,9.61
2023-02-18T18:59:32.073Z,9.63
2023-02-18T19:01:35.782Z,9.62
2023-02-18T19:03:40.471Z,9.61
2023-02-18T19:05:46.462Z,9.61
2023-02-18T19:07:50.477Z,9.63
2023-02-18T19:09:56.013Z,9.61
2023-02-18T19:11:59.584Z,9.62
2023-02-18T19:14:03.136Z,9.62
2023-02-18T19:16:13.440Z,9.61
2023-02-18T19:18:20.374Z,9.61
2023-02-18T19:20:27.041Z,9.62
2023-02-18T19:22:30.632Z,9.61
2023-02-18T19:24:34.246Z,9.59
2023-02-18T19:26:39.318Z,9.60
2023-02-18T19:28:42.775Z,9.60
2023-02-18T19:30:47.641Z,9.58
2023-02-18T19:32:51.624Z,9.56
2023-02-18T19:34:55.209Z,9.56
2023-02-18T19:36:59.675Z,9.54
2023-02-18T19:39:04.167Z,9.52
2023-02-18T19:41:09.836Z,9.53
2023-02-18T19:43:15.795Z,9.51
2023-02-18T19:45:20.392Z,9.49
2023-02-18T19:47:25.415Z,9.48
2023-02-18T19:49:28.943Z,9.46
2023-02-18T19:51:33.468Z,9.47
2023-02-18T19:53:38.779Z,9.45
2023-02-18T19:55:43.396Z,9.45
2023-02-18T19:57:47.252Z,9.43
2023-02-18T19:59:53.403Z,9.40
2023-02-18T20:01:57.638Z,9.39
2023-02-18T20:04:01.349Z,9.36
2023-02-18T20:06:05.226Z,9.37
2023-02-18T20:08:09.021Z,9.37
2023-02-18T20:10:14.840Z,9.36
2023-02-18T20:12:18.429Z,9.37
2023-02-18T20:14:24.121Z,9.35
2023-02-18T20:16:29.013Z,9.33
2023-02-18T20:18:33.294Z,9.34
2023-02-18T20:20:37.064Z,9.32
2023-02-18T20:22:40.491Z,9.30
2023-02-18T20:24:44.207Z,9.29
2023-02-18T20:26:47.920Z,9.31
2023-02-18T20:28:51.853Z,9.31
2023-02-18T20:31:05.637Z,9.31
2023-02-18T20:33:10.963Z,9.28
2023-02-18T20:35:14.622Z,9.27
2023-02-18T20:37:18.204Z,9.27
2023-02-18T20:39:22.795Z,9.26
2023-02-18T20:41:26.246Z,9.27
2023-02-18T20:43:32.092Z,9.26
2023-02-18T20:45:36.064Z,9.27
2023-02-18T20:47:40.058Z,9.26
2023-02-18T20:49:46.984Z,9.26
2023-02-18T20:51:50.689Z,9.28
2023-02-18T20:53:54.241Z,9.28
2023-02-18T20:55:57.830Z,9.27
2023-02-18T20:58:01.525Z,9.28
2023-02-18T21:00:06.066Z,9.27
2023-02-18T21:02:10.189Z,9.24
2023-02-18T21:04:16.831Z,9.24
2023-02-18T21:06:24.766Z,9.23
2023-02-18T21:08:32.368Z,9.22
2023-02-18T21:10:36.205Z,9.21
2023-02-18T21:12:41.159Z,9.21
2023-02-18T21:14:46.336Z,9.20
2023-02-18T21:16:52.321Z,9.20
2023-02-18T21:18:57.535Z,9.21
2023-02-18T21:21:03.802Z,9.20
2023-02-18T21:23:08.893Z,9.21
2023-02-18T21:25:13.288Z,9.20
2023-02-18T21:27:16.583Z,9.22
2023-02-18T21:29:20.010Z,9.20
2023-02-18T21:31:25.668Z,9.21
2023-02-18T21:33:29.258Z,9.19
2023-02-18T21:35:35.783Z,9.20
2023-02-18T21:37:39.082Z,9.20
2023-02-18T21:39:43.905Z,9.19
2023-02-18T21:41:47.176Z,9.19
2023-02-18T21:43:50.588Z,9.17
2023-02-18T21:45:53.939Z,9.18
2023-02-18T21:48:19.459Z,9.18
2023-02-18T21:50:22.808Z,9.16
2023-02-18T21:52:27.751Z,9.17
2023-02-18T21:54:33.696Z,9.18
2023-02-18T21:56:38.797Z,9.16
2023-02-18T21:58:44.375Z,9.17
2023-02-18T22:00:47.992Z,9.14
2023-02-18T22:02:51.542Z,9.15
2023-02-18T22:04:55.337Z,9.16
2023-02-18T22:06:58.872Z,9.18
2023-02-18T22:09:03.043Z,9.18
2023-02-18T22:11:08.020Z,9.18
2023-02-18T22:13:13.223Z,9.17
2023-02-18T22:15:17.089Z,9.17
2023-02-18T22:17:21.704Z,9.15
2023-02-18T22:19:25.467Z,9.15
2023-02-18T22:21:29.103Z,9.15
2023-02-18T22:23:33.066Z,9.15
2023-02-18T22:25:37.136Z,9.14
2023-02-18T22:27:40.555Z,9.14
2023-02-18T22:29:47.420Z,9.14
2023-02-18T22:31:53.537Z,9.14
2023-02-18T22:33:58.269Z,9.14
2023-02-18T22:36:03.123Z,9.14
2023-02-18T22:38:06.577Z,9.13
2023-02-18T22:40:10.893Z,9.11
2023-02-18T22:42:14.349Z,9.10
2023-02-18T22:44:18.785Z,9.09
2023-02-18T22:46:24.155Z,9.07
2023-02-18T22:48:27.494Z,9.04
2023-02-18T22:50:31.104Z,9.04
2023-02-18T22:52:36.144Z,9.02
2023-02-18T22:54:39.884Z,9.03
2023-02-18T22:56:43.629Z,9.02
2023-02-18T22:58:48.341Z,8.99
2023-02-18T23:00:51.970Z,9.00
2023-02-18T23:02:56.944Z,8.99
2023-02-18T23:05:00.293Z,9.00
2023-02-18T23:07:03.847Z,9.00
2023-02-18T23:09:09.008Z,9.02
2023-02-18T23:11:14.361Z,8.98
2023-02-18T23:13:17.825Z,8.97
2023-02-18T23:15:21.201Z,8.94
2023-02-18T23:17:24.709Z,8.92
2023-02-18T23:19:31.540Z,8.89
2023-02-18T23:21:34.878Z,8.87
2023-02-18T23:23:38.754Z,8.85
2023-02-18T23:25:42.276Z,8.84
2023-02-18T23:27:45.771Z,8.83
2023-02-18T23:29:49.647Z,8.84
2023-02-18T23:31:53.222Z,8.81
2023-02-18T23:33:58.550Z,8.81
2023-02-18T23:36:11.744Z,8.79
2023-02-18T23:38:15.124Z,8.79
2023-02-18T23:40:18.895Z,8.79
2023-02-18T23:42:22.147Z,8.78
2023-02-18T23:44:27.336Z,8.80
2023-02-18T23:46:30.634Z,8.81
2023-02-18T23:48:38.180Z,8.80
2023-02-18T23:50:41.620Z,8.78
2023-02-18T23:52:48.861Z,8.78
2023-02-18T23:54:52.170Z,8.79
2023-02-18T23:56:55.469Z,8.79
2023-02-18T23:59:00.671Z,8.78
